createdAt,value
2022-12-11T00:00:01.752Z,0.50
2022-12-11T00:05:05.075Z,0.60
2022-12-11T00:10:09.427Z,0.60
2022-12-11T00:15:13.935Z,0.50
2022-12-11T00:20:17.117Z,0.50
2022-12-11T00:25:19.871Z,0.50
2022-12-11T00:30:24.024Z,0.40
2022-12-11T00:35:26.803Z,0.40
2022-12-11T00:40:29.564Z,0.40
2022-12-11T00:45:37.193Z,0.60
2022-12-11T00:50:40.484Z,0.60
2022-12-11T00:55:44.467Z,0.50
2022-12-11T01:00:49.922Z,0.40
2022-12-11T01:05:54.408Z,0.30
2022-12-11T01:11:03.607Z,0.40
2022-12-11T01:16:13.306Z,0.30
2022-12-11T01:21:16.105Z,0.20
2022-12-11T01:26:19.722Z,0.20
2022-12-11T01:31:23.851Z,0.20
2022-12-11T01:36:26.651Z,0.10
2022-12-11T01:41:29.595Z,0.10
2022-12-11T01:46:35.334Z,0.10
2022-12-11T01:51:42.549Z,0.10
2022-12-11T01:56:47.387Z,0.10
2022-12-11T02:01:56.842Z,0.00
2022-12-11T02:06:59.869Z,0.00
2022-12-11T02:12:07.151Z,-0.10
2022-12-11T02:17:15.605Z,0.00
2022-12-11T02:22:27.184Z,0.00
2022-12-11T02:27:37.064Z,0.00
2022-12-11T02:32:47.436Z,0.00
2022-12-11T02:37:56.239Z,0.00
2022-12-11T02:43:03.709Z,0.00
2022-12-11T02:48:10.606Z,0.00
2022-12-11T02:53:17.048Z,0.00
2022-12-11T02:58:23.513Z,0.10
2022-12-11T03:03:29.822Z,-0.10
2022-12-11T03:08:33.305Z,-0.10
2022-12-11T03:13:36.512Z,-0.10
2022-12-11T03:18:50.498Z,-0.20
2022-12-11T03:24:02.768Z,-0.20
2022-12-11T03:29:14.951Z,-0.10
2022-12-11T03:34:23.592Z,-0.10
2022-12-11T03:39:33.197Z,-0.20
2022-12-11T03:44:37.128Z,-0.20
2022-12-11T03:49:43.539Z,-0.10
2022-12-11T03:54:50.738Z,-0.10
2022-12-11T03:59:53.816Z,-0.10
2022-12-11T04:04:57.891Z,-0.20
2022-12-11T04:10:00.890Z,-0.20
2022-12-11T04:15:03.648Z,-0.40
2022-12-11T04:20:28.411Z,-0.30
2022-12-11T04:25:31.169Z,-0.40
2022-12-11T04:30:34.517Z,-0.30
2022-12-11T04:35:38.776Z,-0.40
2022-12-11T04:40:41.611Z,-0.30
2022-12-11T04:45:44.387Z,-0.30
2022-12-11T04:50:48.473Z,-0.40
2022-12-11T04:55:51.307Z,-0.50
2022-12-11T05:00:54.084Z,-0.50
2022-12-11T05:05:58.172Z,-0.50
2022-12-11T05:11:02.721Z,-0.50
2022-12-11T05:16:06.757Z,-0.50
2022-12-11T05:21:13.682Z,-0.60
2022-12-11T05:26:19.581Z,-0.60
2022-12-11T05:31:25.067Z,-0.50
2022-12-11T05:36:31.962Z,-0.40
2022-12-11T05:41:35.233Z,-0.40
2022-12-11T05:46:38.063Z,-0.30
2022-12-11T05:51:43.654Z,-0.30
2022-12-11T05:56:46.415Z,-0.60
2022-12-11T06:01:49.426Z,-0.70
2022-12-11T06:06:55.194Z,-0.70
2022-12-11T06:11:57.940Z,-0.60
2022-12-11T06:17:01.487Z,-0.50
2022-12-11T06:22:05.741Z,-0.60
2022-12-11T06:27:09.123Z,-0.70
2022-12-11T06:32:12.138Z,-0.70
2022-12-11T06:37:16.235Z,-0.60
2022-12-11T06:42:18.972Z,-0.60
2022-12-11T06:47:21.756Z,-0.80
2022-12-11T06:52:27.689Z,-0.80
2022-12-11T06:57:30.479Z,-0.90
2022-12-11T07:02:33.263Z,-0.90
2022-12-11T07:07:37.381Z,-0.90
2022-12-11T07:12:40.268Z,-0.80
2022-12-11T07:17:43.173Z,-0.90
2022-12-11T07:22:47.295Z,-0.90
2022-12-11T07:27:50.060Z,-1.00
2022-12-11T07:32:52.876Z,-1.00
2022-12-11T07:37:57.623Z,-1.20
2022-12-11T07:43:00.378Z,-1.10
2022-12-11T07:48:03.140Z,-1.10
2022-12-11T07:53:07.678Z,-1.00
2022-12-11T07:58:10.504Z,-1.10
2022-12-11T08:03:13.256Z,-1.20
2022-12-11T08:08:17.549Z,-1.10
2022-12-11T08:13:20.359Z,-1.10
2022-12-11T08:18:23.203Z,-1.20
2022-12-11T08:23:27.310Z,-1.10
2022-12-11T08:28:30.559Z,-1.00
2022-12-11T08:33:33.582Z,-1.10
2022-12-11T08:38:38.266Z,-1.10
2022-12-11T08:43:41.306Z,-1.00
2022-12-11T08:48:44.827Z,-1.00
2022-12-11T08:53:48.905Z,-0.90
2022-12-11T08:58:52.883Z,-0.90
2022-12-11T09:03:56.748Z,-1.00
2022-12-11T09:09:02.403Z,-1.10
2022-12-11T09:14:07.857Z,-1.10
2022-12-11T09:19:14.496Z,-1.10
2022-12-11T09:24:18.581Z,-1.00
2022-12-11T09:29:21.348Z,-0.80
2022-12-11T09:34:29.074Z,-0.60
2022-12-11T09:39:33.757Z,-0.70
2022-12-11T09:44:42.294Z,-0.80
2022-12-11T09:49:47.223Z,-0.60
2022-12-11T09:54:55.266Z,-0.50
2022-12-11T10:00:08.878Z,-0.50
2022-12-11T10:05:19.562Z,-0.10
2022-12-11T10:10:34.645Z,0.20
2022-12-11T10:15:44.358Z,0.30
2022-12-11T10:20:47.927Z,-0.30
2022-12-11T10:25:57.853Z,-0.20
2022-12-11T10:31:10.857Z,0.00
2022-12-11T10:36:19.701Z,0.60
2022-12-11T10:41:32.042Z,1.00
2022-12-11T10:46:37.194Z,1.10
2022-12-11T10:51:40.557Z,1.20
2022-12-11T10:56:47.476Z,1.00
2022-12-11T11:01:50.426Z,0.90
2022-12-11T11:07:02.892Z,0.80
2022-12-11T11:12:19.407Z,0.70
2022-12-11T11:17:22.508Z,0.80
2022-12-11T11:22:25.415Z,0.60
2022-12-11T11:27:35.409Z,0.80
2022-12-11T11:32:40.707Z,1.10
2022-12-11T11:37:47.148Z,1.00
2022-12-11T11:43:02.272Z,1.00
2022-12-11T11:48:17.175Z,0.80
2022-12-11T11:53:26.823Z,0.30
2022-12-11T11:58:38.764Z,0.20
2022-12-11T12:03:41.660Z,-0.10
2022-12-11T12:08:51.254Z,-0.20
2022-12-11T12:14:22.528Z,-0.40
2022-12-11T12:19:47.807Z,-0.40
2022-12-11T12:25:01.388Z,-0.40
2022-12-11T12:30:11.759Z,-0.40
2022-12-11T12:35:34.805Z,-0.40
2022-12-11T12:40:43.172Z,-0.10
2022-12-11T12:45:53.732Z,0.00
2022-12-11T12:50:57.112Z,0.20
2022-12-11T12:56:00.598Z,0.20
2022-12-11T13:01:16.278Z,0.20
2022-12-11T13:06:35.181Z,-0.10
2022-12-11T13:11:38.168Z,0.20
2022-12-11T13:16:44.205Z,0.10
2022-12-11T13:21:57.263Z,0.00
2022-12-11T13:27:11.419Z,0.10
2022-12-11T13:32:25.007Z,-0.10
2022-12-11T13:37:33.037Z,-0.30
2022-12-11T13:42:41.398Z,-0.40
2022-12-11T13:47:46.659Z,-0.20
2022-12-11T13:52:55.979Z,-0.20
2022-12-11T13:57:59.443Z,-0.10
2022-12-11T14:03:07.380Z,-0.20
2022-12-11T14:08:11.170Z,-0.40
2022-12-11T14:13:22.854Z,-0.50
2022-12-11T14:18:30.840Z,-0.60
2022-12-11T14:23:36.004Z,-0.70
2022-12-11T14:28:42.548Z,-0.80
2022-12-11T14:33:51.101Z,-0.90
2022-12-11T14:38:56.981Z,-1.00
2022-12-11T14:44:04.479Z,-1.20
2022-12-11T14:49:18.875Z,-1.20
2022-12-11T14:54:30.455Z,-1.30
2022-12-11T14:59:39.797Z,-1.30
2022-12-11T15:04:45.436Z,-1.20
2022-12-11T15:09:48.224Z,-1.10
2022-12-11T15:14:53.079Z,-1.10
2022-12-11T15:20:09.525Z,-1.10
2022-12-11T15:25:20.493Z,-1.10
2022-12-11T15:30:29.008Z,-1.20
2022-12-11T15:35:33.352Z,-1.40
2022-12-11T15:40:36.261Z,-1.30
2022-12-11T15:45:39.105Z,-1.20
2022-12-11T15:50:44.014Z,-1.40
2022-12-11T15:55:47.285Z,-1.30
2022-12-11T16:00:50.122Z,-1.30
2022-12-11T16:05:54.580Z,-1.20
2022-12-11T16:10:57.481Z,-1.30
2022-12-11T16:16:00.423Z,-1.30
2022-12-11T16:21:07.292Z,-1.40
2022-12-11T16:26:10.461Z,-1.30
2022-12-11T16:31:16.953Z,-1.30
2022-12-11T16:36:21.510Z,-1.40
2022-12-11T16:41:24.892Z,-1.50
2022-12-11T16:46:27.809Z,-1.30
2022-12-11T16:51:31.944Z,-1.50
2022-12-11T16:56:34.931Z,-1.40
2022-12-11T17:01:37.902Z,-1.50
2022-12-11T17:06:42.262Z,-1.60
2022-12-11T17:11:45.047Z,-1.60
2022-12-11T17:16:48.079Z,-1.60
2022-12-11T17:21:54.029Z,-1.50
2022-12-11T17:26:56.816Z,-1.50
2022-12-11T17:31:59.654Z,-1.50
2022-12-11T17:37:03.814Z,-1.50
2022-12-11T17:42:06.785Z,-1.40
2022-12-11T17:47:11.895Z,-1.30
2022-12-11T17:52:16.118Z,-1.40
2022-12-11T17:57:18.882Z,-1.40
2022-12-11T18:02:21.705Z,-1.50
2022-12-11T18:07:25.943Z,-1.60
2022-12-11T18:12:31.035Z,-1.50
2022-12-11T18:17:34.352Z,-1.50
2022-12-11T18:22:38.720Z,-1.40
2022-12-11T18:27:41.557Z,-1.50
2022-12-11T18:32:44.888Z,-1.50
2022-12-11T18:37:49.027Z,-1.50
2022-12-11T18:42:51.966Z,-1.40
2022-12-11T18:47:55.623Z,-1.50
2022-12-11T18:52:59.728Z,-1.60
2022-12-11T18:58:03.167Z,-1.60
2022-12-11T19:03:06.438Z,-1.60
2022-12-11T19:08:12.628Z,-1.50
2022-12-11T19:13:15.930Z,-1.50
2022-12-11T19:18:18.762Z,-1.50
2022-12-11T19:23:23.123Z,-1.50
2022-12-11T19:28:25.863Z,-1.60
2022-12-11T19:33:28.647Z,-1.50
2022-12-11T19:38:32.796Z,-1.50
2022-12-11T19:43:35.781Z,-1.40
2022-12-11T19:48:40.810Z,-1.50
2022-12-11T19:53:46.009Z,-1.50
2022-12-11T19:58:49.766Z,-1.60
2022-12-11T20:03:52.671Z,-1.60
2022-12-11T20:08:57.074Z,-1.70
2022-12-11T20:14:00.187Z,-1.60
2022-12-11T20:19:04.999Z,-1.60
2022-12-11T20:24:09.499Z,-1.60
2022-12-11T20:29:30.823Z,-1.50
2022-12-11T20:34:55.716Z,-1.60
2022-12-11T20:40:20.220Z,-1.60
2022-12-11T20:45:32.945Z,-1.60
2022-12-11T20:50:41.666Z,-1.60
2022-12-11T20:56:23.002Z,-1.60
2022-12-11T21:01:38.843Z,-1.70
2022-12-11T21:06:44.455Z,-1.80
2022-12-11T21:12:14.706Z,-1.80
2022-12-11T21:17:53.760Z,-1.70
2022-12-11T21:23:02.021Z,-1.70
2022-12-11T21:28:16.664Z,-1.80
2022-12-11T21:33:25.831Z,-1.80
2022-12-11T21:38:43.992Z,-1.70
2022-12-11T21:45:26.009Z,-1.70
2022-12-11T21:49:48.906Z,-1.80
2022-12-11T21:54:59.333Z,-1.70
2022-12-11T22:00:09.344Z,-1.80
2022-12-11T22:05:12.980Z,-1.90
2022-12-11T22:10:21.824Z,-1.90
2022-12-11T22:15:45.811Z,-1.90
2022-12-11T22:21:18.999Z,-2.00
2022-12-11T22:26:31.810Z,-1.90
2022-12-11T22:32:03.287Z,-1.80
2022-12-11T22:37:11.839Z,-1.80
2022-12-11T22:42:40.060Z,-1.80
2022-12-11T22:48:36.186Z,-1.80
2022-12-11T22:53:53.558Z,-1.80
2022-12-11T22:59:22.047Z,-1.90
2022-12-11T23:05:11.675Z,-1.90
2022-12-11T23:10:29.262Z,-1.80
2022-12-11T23:15:43.885Z,-1.90
2022-12-11T23:21:15.622Z,-1.90
2022-12-11T23:26:43.698Z,-1.90
2022-12-11T23:32:04.951Z,-1.80
2022-12-11T23:37:23.742Z,-1.80
2022-12-11T23:42:49.927Z,-1.70
2022-12-11T23:48:20.085Z,-1.70
2022-12-11T23:53:58.499Z,-1.80
2022-12-11T23:59:33.413Z,-1.80
